sensor_id;sensor_type;location;lat;lon;timestamp;pressure;altitude;pressure_sealevel;temperature;humidity
64189;BME280;50493;50.970;10.082;2023-01-19T00:01:09;98051.25;;;-2.90;70.33
64189;BME280;50493;50.970;10.082;2023-01-19T00:03:34;98061.41;;;-2.93;71.19
64189;BME280;50493;50.970;10.082;2023-01-19T00:06:03;98061.34;;;-3.03;71.53
64189;BME280;50493;50.970;10.082;2023-01-19T00:08:29;98060.53;;;-2.98;71.04
64189;BME280;50493;50.970;10.082;2023-01-19T00:10:54;98063.94;;;-2.99;71.26
64189;BME280;50493;50.970;10.082;2023-01-19T00:13:19;98055.31;;;-3.06;71.62
64189;BME280;50493;50.970;10.082;2023-01-19T00:15:45;98055.41;;;-2.98;71.11
64189;BME280;50493;50.970;10.082;2023-01-19T00:18:12;98054.53;;;-3.01;70.60
64189;BME280;50493;50.970;10.082;2023-01-19T00:20:37;98053.47;;;-3.18;71.98
64189;BME280;50493;50.970;10.082;2023-01-19T00:23:02;98059.53;;;-3.10;71.19
64189;BME280;50493;50.970;10.082;2023-01-19T00:25:29;98065.38;;;-3.22;71.50
64189;BME280;50493;50.970;10.082;2023-01-19T00:27:54;98064.47;;;-3.25;68.60
64189;BME280;50493;50.970;10.082;2023-01-19T00:30:19;98061.13;;;-3.18;70.99
64189;BME280;50493;50.970;10.082;2023-01-19T00:32:45;98064.31;;;-3.38;71.83
64189;BME280;50493;50.970;10.082;2023-01-19T00:35:11;98063.47;;;-3.37;72.26
64189;BME280;50493;50.970;10.082;2023-01-19T00:37:37;98060.91;;;-3.37;72.30
64189;BME280;50493;50.970;10.082;2023-01-19T00:40:02;98067.75;;;-3.36;71.34
64189;BME280;50493;50.970;10.082;2023-01-19T00:42:28;98067.94;;;-3.20;70.70
64189;BME280;50493;50.970;10.082;2023-01-19T00:45:06;98071.94;;;-3.41;71.63
64189;BME280;50493;50.970;10.082;2023-01-19T00:47:31;98077.91;;;-3.42;71.92
64189;BME280;50493;50.970;10.082;2023-01-19T00:49:57;98071.16;;;-3.35;71.13
64189;BME280;50493;50.970;10.082;2023-01-19T00:52:24;98078.91;;;-3.27;70.59
64189;BME280;50493;50.970;10.082;2023-01-19T00:54:49;98079.59;;;-3.41;71.67
64189;BME280;50493;50.970;10.082;2023-01-19T00:57:14;98072.81;;;-3.39;71.51
64189;BME280;50493;50.970;10.082;2023-01-19T00:59:40;98083.97;;;-3.32;70.83
64189;BME280;50493;50.970;10.082;2023-01-19T01:02:05;98084.69;;;-3.41;71.76
64189;BME280;50493;50.970;10.082;2023-01-19T01:04:31;98084.75;;;-3.38;70.93
64189;BME280;50493;50.970;10.082;2023-01-19T01:06:56;98082.38;;;-3.25;65.38
64189;BME280;50493;50.970;10.082;2023-01-19T01:09:23;98077.16;;;-3.31;70.46
64189;BME280;50493;50.970;10.082;2023-01-19T01:11:48;98086.53;;;-3.33;69.98
64189;BME280;50493;50.970;10.082;2023-01-19T01:14:14;98083.03;;;-3.39;71.04
64189;BME280;50493;50.970;10.082;2023-01-19T01:16:39;98081.13;;;-3.55;71.25
64189;BME280;50493;50.970;10.082;2023-01-19T01:19:05;98086.56;;;-3.30;66.83
64189;BME280;50493;50.970;10.082;2023-01-19T01:21:30;98093.28;;;-3.36;70.66
64189;BME280;50493;50.970;10.082;2023-01-19T01:23:55;98093.09;;;-3.53;70.95
64189;BME280;50493;50.970;10.082;2023-01-19T01:26:22;98093.44;;;-3.23;67.91
64189;BME280;50493;50.970;10.082;2023-01-19T01:28:48;98089.88;;;-3.38;69.73
64189;BME280;50493;50.970;10.082;2023-01-19T01:31:13;98083.94;;;-3.35;69.72
64189;BME280;50493;50.970;10.082;2023-01-19T01:33:38;98091.56;;;-3.38;70.21
64189;BME280;50493;50.970;10.082;2023-01-19T01:36:04;98089.78;;;-3.42;70.58
64189;BME280;50493;50.970;10.082;2023-01-19T01:38:30;98090.53;;;-3.51;70.18
64189;BME280;50493;50.970;10.082;2023-01-19T01:40:55;98088.03;;;-3.46;70.21
64189;BME280;50493;50.970;10.082;2023-01-19T01:43:22;98100.91;;;-3.40;69.59
64189;BME280;50493;50.970;10.082;2023-01-19T01:45:47;98093.78;;;-3.63;70.75
64189;BME280;50493;50.970;10.082;2023-01-19T01:48:16;98098.41;;;-3.36;69.62
64189;BME280;50493;50.970;10.082;2023-01-19T01:50:46;98087.03;;;-3.58;69.54
64189;BME280;50493;50.970;10.082;2023-01-19T01:53:33;98086.44;;;-3.40;69.23
64189;BME280;50493;50.970;10.082;2023-01-19T01:56:01;98094.09;;;-3.38;69.06
64189;BME280;50493;50.970;10.082;2023-01-19T01:58:32;98087.88;;;-3.57;69.78
64189;BME280;50493;50.970;10.082;2023-01-19T02:00:58;98086.28;;;-3.49;69.17
64189;BME280;50493;50.970;10.082;2023-01-19T02:03:41;98090.69;;;-3.42;68.80
64189;BME280;50493;50.970;10.082;2023-01-19T02:06:09;98094.78;;;-3.52;69.28
64189;BME280;50493;50.970;10.082;2023-01-19T02:08:38;98086.16;;;-3.58;68.98
64189;BME280;50493;50.970;10.082;2023-01-19T02:11:24;98103.06;;;-3.66;69.59
64189;BME280;50493;50.970;10.082;2023-01-19T02:14:10;98100.63;;;-3.62;69.35
64189;BME280;50493;50.970;10.082;2023-01-19T02:16:36;98101.47;;;-3.61;69.51
64189;BME280;50493;50.970;10.082;2023-01-19T02:19:02;98102.19;;;-3.70;69.38
64189;BME280;50493;50.970;10.082;2023-01-19T02:21:31;98087.91;;;-3.56;68.47
64189;BME280;50493;50.970;10.082;2023-01-19T02:24:01;98092.78;;;-3.73;69.61
64189;BME280;50493;50.970;10.082;2023-01-19T02:26:29;98101.25;;;-3.77;70.26
64189;BME280;50493;50.970;10.082;2023-01-19T02:28:57;98092.69;;;-3.79;63.22
64189;BME280;50493;50.970;10.082;2023-01-19T02:31:23;98091.03;;;-3.77;69.57
64189;BME280;50493;50.970;10.082;2023-01-19T02:33:49;98091.03;;;-3.77;69.74
64189;BME280;50493;50.970;10.082;2023-01-19T02:36:16;98092.50;;;-3.91;70.98
64189;BME280;50493;50.970;10.082;2023-01-19T02:38:46;98093.72;;;-3.67;68.88
64189;BME280;50493;50.970;10.082;2023-01-19T02:41:19;98095.06;;;-3.91;70.78
64189;BME280;50493;50.970;10.082;2023-01-19T02:43:47;98093.41;;;-3.89;70.11
64189;BME280;50493;50.970;10.082;2023-01-19T02:46:13;98095.41;;;-3.68;68.80
64189;BME280;50493;50.970;10.082;2023-01-19T02:48:40;98093.47;;;-3.85;69.26
64189;BME280;50493;50.970;10.082;2023-01-19T02:51:11;98091.88;;;-3.76;69.47
64189;BME280;50493;50.970;10.082;2023-01-19T02:54:04;98089.34;;;-3.75;62.38
64189;BME280;50493;50.970;10.082;2023-01-19T02:56:49;98081.66;;;-3.76;69.24
64189;BME280;50493;50.970;10.082;2023-01-19T02:59:23;98091.84;;;-3.79;69.21
64189;BME280;50493;50.970;10.082;2023-01-19T03:02:00;98080.66;;;-3.86;64.33
64189;BME280;50493;50.970;10.082;2023-01-19T03:04:41;98086.38;;;-4.03;69.75
64189;BME280;50493;50.970;10.082;2023-01-19T03:07:16;98089.34;;;-3.75;68.78
64189;BME280;50493;50.970;10.082;2023-01-19T03:09:48;98094.50;;;-3.72;68.98
64189;BME280;50493;50.970;10.082;2023-01-19T03:12:23;98082.88;;;-3.51;62.33
64189;BME280;50493;50.970;10.082;2023-01-19T03:14:52;98084.47;;;-3.59;68.20
64189;BME280;50493;50.970;10.082;2023-01-19T03:17:21;98084.03;;;-3.90;68.98
64189;BME280;50493;50.970;10.082;2023-01-19T03:19:48;98087.41;;;-3.91;69.12
64189;BME280;50493;50.970;10.082;2023-01-19T03:22:20;98082.59;;;-3.70;68.28
64189;BME280;50493;50.970;10.082;2023-01-19T03:24:47;98075.13;;;-3.57;65.84
64189;BME280;50493;50.970;10.082;2023-01-19T03:27:16;98079.91;;;-3.80;68.40
64189;BME280;50493;50.970;10.082;2023-01-19T03:29:46;98075.75;;;-3.72;67.97
64189;BME280;50493;50.970;10.082;2023-01-19T03:32:16;98090.91;;;-3.83;69.04
64189;BME280;50493;50.970;10.082;2023-01-19T03:34:46;98079.91;;;-3.79;68.46
64189;BME280;50493;50.970;10.082;2023-01-19T03:37:15;98080.03;;;-3.73;68.00
64189;BME280;50493;50.970;10.082;2023-01-19T03:39:40;98081.06;;;-3.58;67.61
64189;BME280;50493;50.970;10.082;2023-01-19T03:42:08;98094.50;;;-3.72;67.58
64189;BME280;50493;50.970;10.082;2023-01-19T03:44:36;98082.88;;;-3.51;67.10
64189;BME280;50493;50.970;10.082;2023-01-19T03:47:05;98084.53;;;-3.53;66.85
64189;BME280;50493;50.970;10.082;2023-01-19T03:49:33;98093.16;;;-3.45;66.47
64189;BME280;50493;50.970;10.082;2023-01-19T03:51:59;98094.75;;;-3.53;66.19
64189;BME280;50493;50.970;10.082;2023-01-19T03:54:25;98094.81;;;-3.50;66.41
64189;BME280;50493;50.970;10.082;2023-01-19T03:56:50;98090.69;;;-3.42;65.76
64189;BME280;50493;50.970;10.082;2023-01-19T03:59:19;98091.63;;;-3.33;65.05
64189;BME280;50493;50.970;10.082;2023-01-19T04:01:46;98099.25;;;-3.37;66.43
64189;BME280;50493;50.970;10.082;2023-01-19T04:04:13;98099.50;;;-3.15;64.41
64189;BME280;50493;50.970;10.082;2023-01-19T04:06:39;98104.50;;;-3.26;65.36
64189;BME280;50493;50.970;10.082;2023-01-19T04:09:04;98107.09;;;-3.24;66.06
64189;BME280;50493;50.970;10.082;2023-01-19T04:11:30;98099.97;;;-2.79;63.87
64189;BME280;50493;50.970;10.082;2023-01-19T04:13:56;98107.81;;;-2.62;62.71
64189;BME280;50493;50.970;10.082;2023-01-19T04:16:22;98101.88;;;-2.57;62.39
64189;BME280;50493;50.970;10.082;2023-01-19T04:18:47;98103.72;;;-2.43;61.79
64189;BME280;50493;50.970;10.082;2023-01-19T04:21:15;98104.41;;;-2.60;62.11
64189;BME280;50493;50.970;10.082;2023-01-19T04:23:40;98107.88;;;-2.56;62.78
64189;BME280;50493;50.970;10.082;2023-01-19T04:26:07;98114.03;;;-2.37;61.81
64189;BME280;50493;50.970;10.082;2023-01-19T04:28:33;98104.84;;;-2.15;61.54
64189;BME280;50493;50.970;10.082;2023-01-19T04:30:59;98105.75;;;-2.11;61.95
64189;BME280;50493;50.970;10.082;2023-01-19T04:33:26;98105.81;;;-2.05;61.79
64189;BME280;50493;50.970;10.082;2023-01-19T04:35:52;98100.81;;;-1.85;61.59
64189;BME280;50493;50.970;10.082;2023-01-19T04:38:19;98107.56;;;-1.96;61.30
64189;BME280;50493;50.970;10.082;2023-01-19T04:40:45;98110.66;;;-2.33;62.14
64189;BME280;50493;50.970;10.082;2023-01-19T04:43:10;98103.44;;;-1.82;61.97
64189;BME280;50493;50.970;10.082;2023-01-19T04:45:36;98100.00;;;-1.81;63.02
64189;BME280;50493;50.970;10.082;2023-01-19T04:48:01;98100.72;;;-1.96;63.65
64189;BME280;50493;50.970;10.082;2023-01-19T04:50:28;98105.19;;;-1.72;63.67
64189;BME280;50493;50.970;10.082;2023-01-19T04:52:53;98099.38;;;-1.46;63.43
64189;BME280;50493;50.970;10.082;2023-01-19T04:55:20;98102.63;;;-1.75;63.40
64189;BME280;50493;50.970;10.082;2023-01-19T04:57:45;98100.19;;;-1.50;63.69
64189;BME280;50493;50.970;10.082;2023-01-19T05:00:11;98100.25;;;-1.41;63.16
64189;BME280;50493;50.970;10.082;2023-01-19T05:02:37;98105.50;;;-1.19;64.97
64189;BME280;50493;50.970;10.082;2023-01-19T05:05:03;98112.19;;;-1.49;65.10
64189;BME280;50493;50.970;10.082;2023-01-19T05:07:28;98113.97;;;-1.33;63.48
64189;BME280;50493;50.970;10.082;2023-01-19T05:09:54;98114.09;;;-1.17;63.69
64189;BME280;50493;50.970;10.082;2023-01-19T05:12:20;98105.56;;;-1.13;63.61
64189;BME280;50493;50.970;10.082;2023-01-19T05:14:46;98111.63;;;-0.94;61.56
64189;BME280;50493;50.970;10.082;2023-01-19T05:17:11;98121.78;;;-1.12;63.49
64189;BME280;50493;50.970;10.082;2023-01-19T05:19:37;98118.44;;;-1.01;63.66
64189;BME280;50493;50.970;10.082;2023-01-19T05:22:03;98115.03;;;-1.00;62.83
64189;BME280;50493;50.970;10.082;2023-01-19T05:24:28;98117.59;;;-1.00;62.37
64189;BME280;50493;50.970;10.082;2023-01-19T05:26:54;98105.59;;;-0.98;62.70
64189;BME280;50493;50.970;10.082;2023-01-19T05:29:20;98106.53;;;-0.82;61.77
64189;BME280;50493;50.970;10.082;2023-01-19T05:31:46;98102.31;;;-0.66;62.42
64189;BME280;50493;50.970;10.082;2023-01-19T05:34:12;98107.41;;;-0.72;62.49
64189;BME280;50493;50.970;10.082;2023-01-19T05:36:38;98098.91;;;-0.49;63.18
64189;BME280;50493;50.970;10.082;2023-01-19T05:39:04;98103.94;;;-0.89;60.70
64189;BME280;50493;50.970;10.082;2023-01-19T05:41:29;98104.63;;;-1.24;63.70
64189;BME280;50493;50.970;10.082;2023-01-19T05:43:54;98101.16;;;-1.33;63.92
64189;BME280;50493;50.970;10.082;2023-01-19T05:46:21;98103.78;;;-1.23;63.46
64189;BME280;50493;50.970;10.082;2023-01-19T05:48:46;98104.44;;;-1.57;64.76
64189;BME280;50493;50.970;10.082;2023-01-19T05:51:12;98106.91;;;-1.68;64.59
64189;BME280;50493;50.970;10.082;2023-01-19T05:53:37;98106.66;;;-2.05;66.15
64189;BME280;50493;50.970;10.082;2023-01-19T05:56:05;98106.81;;;-1.86;66.68
64189;BME280;50493;50.970;10.082;2023-01-19T05:58:32;98117.16;;;-1.68;65.19
64189;BME280;50493;50.970;10.082;2023-01-19T06:01:01;98114.78;;;-1.43;64.39
64189;BME280;50493;50.970;10.082;2023-01-19T06:03:28;98120.69;;;-1.56;65.82
64189;BME280;50493;50.970;10.082;2023-01-19T06:05:55;98111.97;;;-1.80;65.88
64189;BME280;50493;50.970;10.082;2023-01-19T06:08:21;98118.13;;;-1.52;65.14
64189;BME280;50493;50.970;10.082;2023-01-19T06:10:46;98116.41;;;-1.56;65.02
64189;BME280;50493;50.970;10.082;2023-01-19T06:13:11;98121.34;;;-1.82;66.00
64189;BME280;50493;50.970;10.082;2023-01-19T06:15:37;98121.44;;;-1.71;65.26
64189;BME280;50493;50.970;10.082;2023-01-19T06:18:02;98124.03;;;-1.67;65.35
64189;BME280;50493;50.970;10.082;2023-01-19T06:20:29;98124.84;;;-1.74;65.16
64189;BME280;50493;50.970;10.082;2023-01-19T06:22:55;98127.31;;;-1.83;66.40
64189;BME280;50493;50.970;10.082;2023-01-19T06:25:21;98124.00;;;-1.73;66.17
64189;BME280;50493;50.970;10.082;2023-01-19T06:27:46;98133.38;;;-1.73;65.29
64189;BME280;50493;50.970;10.082;2023-01-19T06:30:12;98139.22;;;-1.91;67.14
64189;BME280;50493;50.970;10.082;2023-01-19T06:32:37;98133.38;;;-1.70;66.79
64189;BME280;50493;50.970;10.082;2023-01-19T06:35:03;98136.91;;;-1.53;65.74
64189;BME280;50493;50.970;10.082;2023-01-19T06:37:30;98136.97;;;-1.46;65.06
64189;BME280;50493;50.970;10.082;2023-01-19T06:39:55;98139.44;;;-1.62;66.23
64189;BME280;50493;50.970;10.082;2023-01-19T06:42:21;98138.47;;;-1.79;66.10
64189;BME280;50493;50.970;10.082;2023-01-19T06:44:46;98141.16;;;-1.59;66.61
64189;BME280;50493;50.970;10.082;2023-01-19T06:47:12;98136.00;;;-1.66;67.02
64189;BME280;50493;50.970;10.082;2023-01-19T06:49:38;98145.59;;;-1.35;65.50
64189;BME280;50493;50.970;10.082;2023-01-19T06:52:03;98139.75;;;-1.12;64.29
64189;BME280;50493;50.970;10.082;2023-01-19T06:54:30;98146.63;;;-1.04;64.79
64189;BME280;50493;50.970;10.082;2023-01-19T06:56:55;98144.91;;;-1.02;64.50
64189;BME280;50493;50.970;10.082;2023-01-19T06:59:21;98140.97;;;-1.83;67.98
64189;BME280;50493;50.970;10.082;2023-01-19T07:01:46;98159.31;;;-1.28;65.06
64189;BME280;50493;50.970;10.082;2023-01-19T07:04:11;98154.34;;;-1.02;65.19
64189;BME280;50493;50.970;10.082;2023-01-19T07:06:38;98151.78;;;-1.01;65.88
64189;BME280;50493;50.970;10.082;2023-01-19T07:09:03;98154.41;;;-0.88;64.59
64189;BME280;50493;50.970;10.082;2023-01-19T07:11:33;98165.31;;;-1.23;65.82
64189;BME280;50493;50.970;10.082;2023-01-19T07:13:58;98156.16;;;-0.73;63.01
64189;BME280;50493;50.970;10.082;2023-01-19T07:16:24;98153.59;;;-0.72;63.47
64189;BME280;50493;50.970;10.082;2023-01-19T07:18:49;98151.97;;;-0.54;63.84
64189;BME280;50493;50.970;10.082;2023-01-19T07:21:15;98155.38;;;-0.61;63.46
64189;BME280;50493;50.970;10.082;2023-01-19T07:23:40;98156.25;;;-0.49;63.90
64189;BME280;50493;50.970;10.082;2023-01-19T07:26:08;98154.53;;;-0.53;63.24
64189;BME280;50493;50.970;10.082;2023-01-19T07:28:35;98160.50;;;-0.65;61.93
64189;BME280;50493;50.970;10.082;2023-01-19T07:31:01;98162.25;;;-0.48;63.33
64189;BME280;50493;50.970;10.082;2023-01-19T07:33:27;98167.41;;;-0.45;62.48
64189;BME280;50493;50.970;10.082;2023-01-19T07:35:53;98167.41;;;-0.30;63.69
64189;BME280;50493;50.970;10.082;2023-01-19T07:38:19;98170.88;;;-0.12;62.08
64189;BME280;50493;50.970;10.082;2023-01-19T07:40:44;98175.97;;;-0.40;63.26
64189;BME280;50493;50.970;10.082;2023-01-19T07:43:13;98177.63;;;-0.54;63.60
64189;BME280;50493;50.970;10.082;2023-01-19T07:45:40;98170.00;;;-0.33;63.31
64189;BME280;50493;50.970;10.082;2023-01-19T07:48:05;98175.09;;;-0.45;63.83
64189;BME280;50493;50.970;10.082;2023-01-19T07:50:31;98169.00;;;-0.72;64.51
64189;BME280;50493;50.970;10.082;2023-01-19T07:52:56;98169.13;;;-0.45;64.07
64189;BME280;50493;50.970;10.082;2023-01-19T07:55:22;98171.66;;;-0.49;63.67
64189;BME280;50493;50.970;10.082;2023-01-19T07:57:48;98169.03;;;-0.67;65.41
64189;BME280;50493;50.970;10.082;2023-01-19T08:00:18;98169.09;;;-0.50;64.44
64189;BME280;50493;50.970;10.082;2023-01-19T08:02:47;98175.03;;;-0.62;65.45
64189;BME280;50493;50.970;10.082;2023-01-19T08:05:15;98167.34;;;-0.60;64.59
64189;BME280;50493;50.970;10.082;2023-01-19T08:07:41;98160.59;;;-0.24;63.62
64189;BME280;50493;50.970;10.082;2023-01-19T08:10:07;98164.84;;;-0.31;64.09
64189;BME280;50493;50.970;10.082;2023-01-19T08:12:33;98168.31;;;-0.32;62.98
64189;BME280;50493;50.970;10.082;2023-01-19T08:14:58;98172.56;;;-0.30;63.51
64189;BME280;50493;50.970;10.082;2023-01-19T08:17:24;98172.53;;;-0.48;65.40
64189;BME280;50493;50.970;10.082;2023-01-19T08:19:50;98181.88;;;-0.61;65.57
64189;BME280;50493;50.970;10.082;2023-01-19T08:22:16;98184.44;;;-0.62;64.84
64189;BME280;50493;50.970;10.082;2023-01-19T08:24:41;98186.16;;;-0.60;65.10
64189;BME280;50493;50.970;10.082;2023-01-19T08:27:06;98179.41;;;-0.33;63.98
64189;BME280;50493;50.970;10.082;2023-01-19T08:29:34;98177.78;;;-0.05;63.42
64189;BME280;50493;50.970;10.082;2023-01-19T08:31:59;98181.19;;;-0.06;63.07
64189;BME280;50493;50.970;10.082;2023-01-19T08:34:27;98185.44;;;-0.26;64.30
64189;BME280;50493;50.970;10.082;2023-01-19T08:36:53;98183.72;;;-0.32;64.01
64189;BME280;50493;50.970;10.082;2023-01-19T08:39:19;98179.44;;;-0.21;64.06
64189;BME280;50493;50.970;10.082;2023-01-19T08:41:44;98173.34;;;-0.60;64.35
64189;BME280;50493;50.970;10.082;2023-01-19T08:44:09;98180.09;;;-0.76;64.32
64189;BME280;50493;50.970;10.082;2023-01-19T08:46:35;98179.19;;;-0.90;65.77
64189;BME280;50493;50.970;10.082;2023-01-19T08:49:00;98177.63;;;-0.60;65.57
64189;BME280;50493;50.970;10.082;2023-01-19T08:51:25;98173.28;;;-0.74;65.23
64189;BME280;50493;50.970;10.082;2023-01-19T08:53:52;98172.53;;;-0.50;64.09
64189;BME280;50493;50.970;10.082;2023-01-19T08:56:17;98175.16;;;-0.22;64.75
64189;BME280;50493;50.970;10.082;2023-01-19T08:58:44;98176.91;;;-0.05;62.26
64189;BME280;50493;50.970;10.082;2023-01-19T09:01:11;98177.78;;;0.08;63.24
64189;BME280;50493;50.970;10.082;2023-01-19T09:03:39;98180.38;;;0.17;62.91
64189;BME280;50493;50.970;10.082;2023-01-19T09:06:04;98181.22;;;0.19;62.51
64189;BME280;50493;50.970;10.082;2023-01-19T09:08:30;98185.47;;;-0.16;63.70
64189;BME280;50493;50.970;10.082;2023-01-19T09:10:56;98187.19;;;-0.13;63.97
64189;BME280;50493;50.970;10.082;2023-01-19T09:13:22;98187.19;;;-0.10;63.88
64189;BME280;50493;50.970;10.082;2023-01-19T09:15:47;98188.88;;;-0.20;63.41
64189;BME280;50493;50.970;10.082;2023-01-19T09:18:14;98189.75;;;0.06;63.05
64189;BME280;50493;50.970;10.082;2023-01-19T09:20:40;98188.88;;;-0.12;63.29
64189;BME280;50493;50.970;10.082;2023-01-19T09:23:07;98188.03;;;-0.11;63.26
64189;BME280;50493;50.970;10.082;2023-01-19T09:25:35;98200.00;;;-0.22;64.43
64189;BME280;50493;50.970;10.082;2023-01-19T09:28:02;98200.91;;;0.05;63.40
64189;BME280;50493;50.970;10.082;2023-01-19T09:30:27;98194.88;;;-0.10;63.71
64189;BME280;50493;50.970;10.082;2023-01-19T09:32:52;98199.19;;;0.07;62.60
64189;BME280;50493;50.970;10.082;2023-01-19T09:35:18;98202.53;;;-0.25;62.95
64189;BME280;50493;50.970;10.082;2023-01-19T09:37:45;98194.00;;;-0.20;63.47
64189;BME280;50493;50.970;10.082;2023-01-19T09:40:11;98201.69;;;-0.32;63.71
64189;BME280;50493;50.970;10.082;2023-01-19T09:42:41;98198.16;;;-0.54;63.41
64189;BME280;50493;50.970;10.082;2023-01-19T09:45:14;98209.41;;;-0.23;62.85
64189;BME280;50493;50.970;10.082;2023-01-19T09:47:42;98193.09;;;-0.30;63.46
64189;BME280;50493;50.970;10.082;2023-01-19T09:50:14;98196.56;;;-0.23;62.81
64189;BME280;50493;50.970;10.082;2023-01-19T09:52:42;98204.19;;;-0.44;64.65
64189;BME280;50493;50.970;10.082;2023-01-19T09:55:18;98196.59;;;-0.18;63.65
64189;BME280;50493;50.970;10.082;2023-01-19T09:57:44;98191.44;;;-0.20;63.18
64189;BME280;50493;50.970;10.082;2023-01-19T10:00:15;98181.16;;;-0.12;63.36
64189;BME280;50493;50.970;10.082;2023-01-19T10:02:43;98193.22;;;0.35;61.04
64189;BME280;50493;50.970;10.082;2023-01-19T10:05:21;98188.94;;;0.27;61.62
64189;BME280;50493;50.970;10.082;2023-01-19T10:08:00;98182.00;;;-0.15;61.90
64189;BME280;50493;50.970;10.082;2023-01-19T10:10:33;98184.63;;;-0.01;61.96
64189;BME280;50493;50.970;10.082;2023-01-19T10:13:10;98188.03;;;0.01;62.41
64189;BME280;50493;50.970;10.082;2023-01-19T10:15:46;98185.47;;;-0.16;62.78
64189;BME280;50493;50.970;10.082;2023-01-19T10:18:19;98182.94;;;0.20;61.32
64189;BME280;50493;50.970;10.082;2023-01-19T10:20:49;98184.59;;;-0.13;61.52
64189;BME280;50493;50.970;10.082;2023-01-19T10:23:33;98180.38;;;0.17;61.85
64189;BME280;50493;50.970;10.082;2023-01-19T10:26:03;98182.94;;;0.20;62.34
64189;BME280;50493;50.970;10.082;2023-01-19T10:28:30;98179.53;;;0.41;60.89
64189;BME280;50493;50.970;10.082;2023-01-19T10:30:57;98182.94;;;0.26;61.83
64189;BME280;50493;50.970;10.082;2023-01-19T10:33:22;98190.59;;;-0.09;62.07
64189;BME280;50493;50.970;10.082;2023-01-19T10:35:48;98181.16;;;-0.12;62.00
64189;BME280;50493;50.970;10.082;2023-01-19T10:38:15;98177.75;;;-0.14;62.17
64189;BME280;50493;50.970;10.082;2023-01-19T10:40:51;98188.03;;;-0.08;62.39
64189;BME280;50493;50.970;10.082;2023-01-19T10:43:35;98182.91;;;-0.17;62.25
64189;BME280;50493;50.970;10.082;2023-01-19T10:46:04;98191.50;;;0.00;61.68
64189;BME280;50493;50.970;10.082;2023-01-19T10:48:36;98187.06;;;-0.58;63.51
64189;BME280;50493;50.970;10.082;2023-01-19T10:51:03;98190.63;;;-0.02;62.93
64189;BME280;50493;50.970;10.082;2023-01-19T10:53:29;98186.34;;;0.10;62.26
64189;BME280;50493;50.970;10.082;2023-01-19T10:56:10;98190.50;;;-0.45;63.72
64189;BME280;50493;50.970;10.082;2023-01-19T10:58:36;98186.34;;;0.00;63.21
64189;BME280;50493;50.970;10.082;2023-01-19T11:01:13;98201.69;;;-0.24;64.68
64189;BME280;50493;50.970;10.082;2023-01-19T11:03:39;98206.72;;;-0.55;66.04
64189;BME280;50493;50.970;10.082;2023-01-19T11:06:19;98195.72;;;-0.22;65.82
64189;BME280;50493;50.970;10.082;2023-01-19T11:08:47;98196.63;;;0.20;65.07
64189;BME280;50493;50.970;10.082;2023-01-19T11:11:15;98191.50;;;0.28;67.33
64189;BME280;50493;50.970;10.082;2023-01-19T11:13:41;98188.03;;;-0.16;67.16
64189;BME280;50493;50.970;10.082;2023-01-19T11:16:18;98197.50;;;0.23;69.48
64189;BME280;50493;50.970;10.082;2023-01-19T11:18:50;98197.47;;;-0.02;69.51
64189;BME280;50493;50.970;10.082;2023-01-19T11:21:16;98193.97;;;-0.24;70.22
64189;BME280;50493;50.970;10.082;2023-01-19T11:23:47;98194.88;;;-0.10;71.93
64189;BME280;50493;50.970;10.082;2023-01-19T11:26:24;98194.06;;;0.08;71.88
64189;BME280;50493;50.970;10.082;2023-01-19T11:28:51;98200.84;;;-0.22;72.35
64189;BME280;50493;50.970;10.082;2023-01-19T11:31:31;98191.47;;;0.10;74.21
64189;BME280;50493;50.970;10.082;2023-01-19T11:33:59;98197.50;;;0.27;75.03
64189;BME280;50493;50.970;10.082;2023-01-19T11:36:26;98200.06;;;0.12;73.70
64189;BME280;50493;50.970;10.082;2023-01-19T11:38:53;98193.22;;;0.23;72.67
64189;BME280;50493;50.970;10.082;2023-01-19T11:41:20;98184.59;;;-0.07;74.93
64189;BME280;50493;50.970;10.082;2023-01-19T11:43:48;98187.19;;;0.06;76.30
64189;BME280;50493;50.970;10.082;2023-01-19T11:46:15;98191.38;;;-0.35;76.99
64189;BME280;50493;50.970;10.082;2023-01-19T11:48:45;98191.50;;;0.16;76.14
64189;BME280;50493;50.970;10.082;2023-01-19T11:51:15;98177.78;;;0.35;75.32
64189;BME280;50493;50.970;10.082;2023-01-19T11:53:45;98182.94;;;0.26;74.10
64189;BME280;50493;50.970;10.082;2023-01-19T11:56:13;98183.81;;;0.47;72.36
64189;BME280;50493;50.970;10.082;2023-01-19T11:58:40;98184.66;;;0.64;73.23
64189;BME280;50493;50.970;10.082;2023-01-19T12:01:13;98182.06;;;0.40;72.73
64189;BME280;50493;50.970;10.082;2023-01-19T12:03:46;98184.66;;;0.67;73.21
64189;BME280;50493;50.970;10.082;2023-01-19T12:06:18;98185.50;;;0.32;74.42
64189;BME280;50493;50.970;10.082;2023-01-19T12:08:46;98178.66;;;0.65;74.06
64189;BME280;50493;50.970;10.082;2023-01-19T12:11:17;98186.34;;;0.78;74.06
64189;BME280;50493;50.970;10.082;2023-01-19T12:13:45;98187.19;;;0.87;73.46
64189;BME280;50493;50.970;10.082;2023-01-19T12:16:13;98183.75;;;0.98;72.90
64189;BME280;50493;50.970;10.082;2023-01-19T12:18:46;98186.38;;;0.65;73.46
64189;BME280;50493;50.970;10.082;2023-01-19T12:21:12;98176.06;;;0.71;73.95
64189;BME280;50493;50.970;10.082;2023-01-19T12:23:50;98182.84;;;1.00;71.62
64189;BME280;50493;50.970;10.082;2023-01-19T12:26:24;98184.53;;;1.23;72.46
64189;BME280;50493;50.970;10.082;2023-01-19T12:28:53;98187.06;;;1.34;70.32
64189;BME280;50493;50.970;10.082;2023-01-19T12:31:22;98188.72;;;1.53;70.88
64189;BME280;50493;50.970;10.082;2023-01-19T12:33:48;98187.81;;;1.59;69.20
64189;BME280;50493;50.970;10.082;2023-01-19T12:36:35;98188.69;;;1.58;69.52
64189;BME280;50493;50.970;10.082;2023-01-19T12:39:05;98180.88;;;1.70;68.70
64189;BME280;50493;50.970;10.082;2023-01-19T12:41:36;98185.16;;;1.73;68.47
64189;BME280;50493;50.970;10.082;2023-01-19T12:44:19;98187.84;;;1.56;69.11
64189;BME280;50493;50.970;10.082;2023-01-19T12:46:47;98196.59;;;0.95;71.91
64189;BME280;50493;50.970;10.082;2023-01-19T12:49:24;98186.31;;;1.09;72.68
64189;BME280;50493;50.970;10.082;2023-01-19T12:51:52;98194.03;;;0.84;72.46
64189;BME280;50493;50.970;10.082;2023-01-19T12:54:28;98188.09;;;0.42;75.24
64189;BME280;50493;50.970;10.082;2023-01-19T12:56:57;98184.66;;;0.55;74.64